Time;durP1;ratioP1;P1;durP2;ratioP2;P2;SDS_P1;SDS_P2;PMS_P1;PMS_P2;Temp;Humidity;BMP_temperature;BMP_pressure;BME280_temperature;BME280_humidity;BME280_pressure;Samples;Min_cycle;Max_cycle;Signal;HPM_P1;HPM_P2
2022/05/13 00:00:14;;;;;;;4.38;1.38;;;11.50;98.00;;;;;;4985796;28;20470;-54
2022/05/13 00:02:40;;;;;;;4.88;1.10;;;11.50;98.10;;;;;;4989581;28;20035;-56
2022/05/13 00:05:08;;;;;;;4.57;1.05;;;11.40;98.20;;;;;;4982036;28;20038;-55
2022/05/13 00:07:34;;;;;;;5.55;1.02;;;11.40;98.20;;;;;;4970370;28;20442;-53
2022/05/13 00:10:05;;;;;;;5.88;1.90;;;11.40;98.10;;;;;;4986876;28;20038;-55
2022/05/13 00:12:40;;;;;;;5.60;1.20;;;11.40;97.90;;;;;;4984789;28;20046;-56
2022/05/13 00:15:15;;;;;;;4.20;0.98;;;11.30;98.00;;;;;;4984472;28;20076;-57
2022/05/13 00:17:41;;;;;;;6.90;1.30;;;11.30;98.10;;;;;;4984196;28;20038;-56
2022/05/13 00:20:08;;;;;;;6.03;1.27;;;11.30;97.90;;;;;;4980028;28;20097;-56
2022/05/13 00:22:34;;;;;;;2.75;0.98;;;11.30;97.90;;;;;;4987100;28;20038;-55
2022/05/13 00:25:00;;;;;;;4.70;1.10;;;11.20;98.20;;;;;;4989074;28;20049;-53
2022/05/13 00:27:25;;;;;;;3.60;0.95;;;11.20;98.10;;;;;;4983746;28;20403;-56
2022/05/13 00:29:51;;;;;;;4.32;1.05;;;11.20;98.50;;;;;;4963794;28;20459;-56
2022/05/13 00:32:17;;;;;;;3.97;0.98;;;11.20;98.30;;;;;;4986120;28;20038;-55
2022/05/13 00:34:43;;;;;;;3.22;0.90;;;11.20;98.30;;;;;;4985815;28;20066;-51
2022/05/13 00:37:10;;;;;;;5.68;1.35;;;11.20;98.30;;;;;;4984843;28;20045;-55
2022/05/13 00:39:36;;;;;;;2.05;1.00;;;11.20;98.40;;;;;;4970851;28;20070;-57
2022/05/13 00:42:09;;;;;;;3.53;1.30;;;11.20;98.80;;;;;;4984610;28;20065;-55
2022/05/13 00:44:35;;;;;;;4.22;1.33;;;11.10;99.10;;;;;;4968958;28;20492;-49
2022/05/13 00:47:01;;;;;;;3.28;1.13;;;11.10;98.90;;;;;;4985346;28;20031;-50
2022/05/13 00:49:28;;;;;;;4.70;1.27;;;11.10;98.80;;;;;;4984827;28;20125;-52
2022/05/13 00:51:54;;;;;;;2.92;1.00;;;11.10;99.30;;;;;;4983470;28;20042;-45
2022/05/13 00:54:20;;;;;;;3.38;1.30;;;11.10;99.70;;;;;;4984758;28;20049;-48
2022/05/13 00:56:48;;;;;;;4.22;1.33;;;11.10;99.50;;;;;;4984580;28;20043;-55
2022/05/13 00:59:18;;;;;;;4.30;1.10;;;11.10;99.50;;;;;;4985891;28;20482;-52
2022/05/13 01:01:44;;;;;;;5.35;1.50;;;11.20;99.70;;;;;;4984968;28;20038;-55
2022/05/13 01:04:12;;;;;;;8.07;1.50;;;11.20;99.60;;;;;;4965807;28;20137;-54
2022/05/13 01:06:41;;;;;;;2.97;0.85;;;11.10;99.90;;;;;;4984526;28;20051;-58
2022/05/13 01:09:07;;;;;;;4.93;1.33;;;11.10;99.90;;;;;;4983929;28;20492;-54
2022/05/13 01:11:37;;;;;;;3.20;1.10;;;11.20;99.90;;;;;;4982598;28;20635;-55
2022/05/13 01:14:11;;;;;;;4.15;1.40;;;11.10;99.90;;;;;;4968584;28;20038;-45
2022/05/13 01:19:21;;;;;;;5.65;1.27;;;11.20;99.90;;;;;;4990102;28;20519;-54
2022/05/13 01:21:48;;;;;;;3.58;1.27;;;11.20;99.90;;;;;;4986278;28;20038;-55
2022/05/13 01:24:19;;;;;;;5.30;1.55;;;11.10;99.90;;;;;;4989733;28;20117;-55
2022/05/13 01:26:45;;;;;;;3.88;1.13;;;11.20;99.90;;;;;;4987381;28;20530;-55
2022/05/13 01:29:11;;;;;;;5.82;1.27;;;11.20;99.90;;;;;;4969563;28;20049;-55
2022/05/13 01:31:39;;;;;;;4.05;1.40;;;11.20;99.90;;;;;;4987506;28;20047;-55
2022/05/13 01:34:10;;;;;;;3.22;1.27;;;11.20;99.90;;;;;;4985896;28;20574;-50
2022/05/13 01:36:38;;;;;;;6.05;1.27;;;11.20;99.90;;;;;;4986116;28;20579;-56
2022/05/13 01:39:03;;;;;;;3.25;1.10;;;11.10;99.90;;;;;;4967995;28;20448;-55
2022/05/13 01:41:29;;;;;;;5.70;1.48;;;11.10;99.90;;;;;;4990655;28;20038;-52
2022/05/13 01:43:55;;;;;;;5.47;1.45;;;11.10;99.90;;;;;;4986756;28;20590;-55
2022/05/13 01:46:22;;;;;;;3.00;1.50;;;11.10;99.90;;;;;;4972192;28;20133;-52
2022/05/13 01:48:50;;;;;;;3.55;1.25;;;11.10;99.90;;;;;;4986039;28;20054;-53
2022/05/13 01:51:16;;;;;;;4.53;1.10;;;11.10;99.90;;;;;;4984515;28;20042;-56
2022/05/13 01:53:42;;;;;;;5.05;1.20;;;11.00;99.90;;;;;;4985103;28;20448;-55
2022/05/13 01:56:09;;;;;;;6.07;1.73;;;11.10;99.90;;;;;;4985794;28;20120;-55
2022/05/13 01:58:35;;;;;;;4.75;1.60;;;11.10;99.90;;;;;;4986475;28;20054;-55
2022/05/13 02:01:04;;;;;;;2.95;1.10;;;11.10;99.90;;;;;;4978126;28;20046;-55
2022/05/13 02:03:45;;;;;;;4.82;1.48;;;11.00;99.90;;;;;;4987420;28;20458;-54
2022/05/13 02:06:20;;;;;;;5.13;1.40;;;11.00;99.90;;;;;;4988639;28;20144;-53
2022/05/13 02:08:46;;;;;;;5.50;1.33;;;11.10;99.90;;;;;;4989740;28;20045;-56
2022/05/13 02:11:12;;;;;;;4.32;1.10;;;11.10;99.90;;;;;;4964310;28;20046;-56
2022/05/13 02:13:40;;;;;;;6.18;1.60;;;11.10;99.90;;;;;;4987803;28;20498;-55
2022/05/13 02:16:06;;;;;;;5.03;1.27;;;11.10;99.90;;;;;;4986134;28;20058;-55
2022/05/13 02:18:32;;;;;;;6.10;1.30;;;11.10;99.90;;;;;;4988000;28;20378;-53
2022/05/13 02:20:58;;;;;;;8.07;1.60;;;11.00;99.90;;;;;;4973154;28;20046;-53
2022/05/13 02:23:24;;;;;;;5.13;1.20;;;11.00;99.90;;;;;;4986111;28;20038;-55
2022/05/13 02:25:50;;;;;;;6.85;1.38;;;11.00;99.90;;;;;;4972408;28;20056;-55
2022/05/13 02:28:17;;;;;;;4.97;1.75;;;11.00;99.90;;;;;;4987871;28;20526;-56
2022/05/13 02:30:42;;;;;;;7.03;1.42;;;11.00;99.90;;;;;;4987076;28;20050;-54
2022/05/13 02:33:08;;;;;;;3.72;1.75;;;11.00;99.90;;;;;;4987058;28;20057;-56
2022/05/13 02:35:34;;;;;;;6.72;1.33;;;11.00;99.90;;;;;;4969009;28;20153;-56
2022/05/13 02:38:00;;;;;;;3.17;1.30;;;11.00;99.90;;;;;;4982995;28;20049;-55
2022/05/13 02:41:11;;;;;;;7.18;1.58;;;10.90;99.90;;;;;;4988405;28;20027;-53
2022/05/13 02:43:15;;;;;;;5.25;1.92;;;11.00;99.90;;;;;;4989167;28;20074;-55
2022/05/13 02:45:42;;;;;;;5.65;1.70;;;11.00;99.90;;;;;;4988639;28;20403;-56
2022/05/13 02:48:08;;;;;;;5.47;1.55;;;11.00;99.90;;;;;;4987809;28;20069;-57
2022/05/13 02:50:33;;;;;;;5.50;1.60;;;11.00;99.90;;;;;;4987746;28;20050;-56
2022/05/13 02:52:59;;;;;;;5.97;1.27;;;11.00;99.90;;;;;;4986589;28;20489;-57
2022/05/13 02:55:26;;;;;;;7.00;1.73;;;11.00;99.90;;;;;;4987188;28;20077;-55
2022/05/13 02:57:52;;;;;;;7.45;2.03;;;11.00;99.90;;;;;;4988301;28;20534;-56
2022/05/13 03:00:18;;;;;;;6.25;1.50;;;10.90;99.90;;;;;;4985618;28;20065;-55
2022/05/13 03:02:43;;;;;;;6.90;1.40;;;10.90;99.90;;;;;;4988931;28;20069;-56
2022/05/13 03:05:10;;;;;;;6.15;1.40;;;10.90;99.90;;;;;;4986749;28;20034;-56
2022/05/13 03:07:35;;;;;;;3.10;1.08;;;10.90;99.90;;;;;;4987036;28;20042;-56
2022/05/13 03:10:02;;;;;;;4.57;1.55;;;10.90;99.90;;;;;;4953652;28;20039;-56
2022/05/13 03:12:28;;;;;;;7.18;1.70;;;10.90;99.90;;;;;;4983117;28;20448;-52
2022/05/13 03:14:53;;;;;;;5.43;1.33;;;10.90;99.90;;;;;;4987255;28;20094;-56
2022/05/13 03:17:19;;;;;;;4.93;1.42;;;10.90;99.90;;;;;;4987730;28;20764;-55
2022/05/13 03:19:44;;;;;;;7.68;1.55;;;11.00;99.90;;;;;;4986339;28;20039;-52
2022/05/13 03:22:10;;;;;;;7.07;1.83;;;11.00;99.90;;;;;;4982834;28;20065;-56
2022/05/13 03:24:36;;;;;;;5.18;1.10;;;11.00;99.90;;;;;;4984474;28;20034;-55
2022/05/13 03:27:02;;;;;;;11.38;1.48;;;11.00;99.90;;;;;;4985052;28;20180;-56
2022/05/13 03:29:28;;;;;;;5.65;1.42;;;11.00;99.90;;;;;;4984915;28;20042;-56
2022/05/13 03:31:54;;;;;;;6.65;1.67;;;11.00;99.90;;;;;;4985267;28;20041;-51
2022/05/13 03:34:21;;;;;;;10.15;1.70;;;11.00;99.90;;;;;;4969416;28;20069;-51
2022/05/13 03:36:49;;;;;;;6.40;1.55;;;11.10;99.90;;;;;;4984194;28;20046;-55
2022/05/13 03:39:15;;;;;;;7.72;1.48;;;11.00;99.90;;;;;;4986639;28;20491;-61
2022/05/13 03:41:41;;;;;;;6.72;1.90;;;11.10;99.90;;;;;;4985366;28;20031;-56
2022/05/13 03:44:08;;;;;;;11.38;3.10;;;11.00;99.90;;;;;;4988707;28;20161;-55
2022/05/13 03:46:34;;;;;;;9.27;1.67;;;11.10;99.90;;;;;;4983290;28;20179;-46
2022/05/13 03:49:01;;;;;;;8.00;1.67;;;11.00;99.90;;;;;;4987322;28;20082;-51
2022/05/13 03:51:27;;;;;;;4.45;1.50;;;11.10;99.90;;;;;;4969647;28;20046;-54
2022/05/13 03:53:53;;;;;;;7.78;1.20;;;11.00;99.90;;;;;;4986980;28;20471;-54
2022/05/13 03:56:19;;;;;;;4.80;1.55;;;11.00;99.90;;;;;;4968339;28;20146;-52
2022/05/13 03:58:45;;;;;;;7.70;1.70;;;11.00;99.90;;;;;;4984484;28;20152;-52
2022/05/13 04:01:11;;;;;;;8.25;1.73;;;11.00;99.90;;;;;;4987148;28;20530;-55
2022/05/13 04:03:37;;;;;;;6.93;1.33;;;11.00;99.90;;;;;;4989247;28;20396;-55
2022/05/13 04:08:56;;;;;;;8.30;1.80;;;11.00;99.90;;;;;;4985579;28;20050;-56
2022/05/13 04:11:33;;;;;;;7.07;1.70;;;10.90;99.90;;;;;;4988037;28;20495;-55
2022/05/13 04:16:46;;;;;;;7.32;2.03;;;11.00;99.90;;;;;;4983592;28;20134;-49
2022/05/13 04:19:12;;;;;;;8.00;2.72;;;11.00;99.90;;;;;;4984123;28;20108;-55
2022/05/13 04:21:40;;;;;;;9.20;1.90;;;11.00;99.90;;;;;;4987910;28;20038;-54
2022/05/13 04:24:09;;;;;;;5.63;1.60;;;11.00;99.90;;;;;;4984019;28;20128;-56
2022/05/13 04:26:35;;;;;;;11.18;2.28;;;11.00;99.90;;;;;;4987939;28;20110;-55
2022/05/13 04:29:02;;;;;;;8.43;1.95;;;11.10;99.90;;;;;;4986493;28;20042;-54
2022/05/13 04:31:31;;;;;;;5.57;1.70;;;11.10;99.90;;;;;;4987463;28;20052;-54
2022/05/13 04:33:57;;;;;;;9.00;1.92;;;11.10;99.90;;;;;;4988260;28;20039;-58
2022/05/13 04:36:24;;;;;;;9.38;1.63;;;11.20;99.90;;;;;;4986953;28;20049;-54
2022/05/13 04:38:51;;;;;;;8.77;2.25;;;11.20;99.90;;;;;;4989008;28;20030;-55
2022/05/13 04:44:02;;;;;;;9.88;2.00;;;11.20;99.90;;;;;;4986041;28;20445;-50
2022/05/13 04:46:27;;;;;;;7.88;2.60;;;11.20;99.90;;;;;;4983539;28;20046;-55
2022/05/13 04:48:53;;;;;;;9.32;2.13;;;11.30;99.90;;;;;;4981238;28;20056;-47
2022/05/13 04:51:20;;;;;;;8.27;1.70;;;11.30;99.90;;;;;;4979791;28;20038;-52
2022/05/13 04:53:48;;;;;;;7.07;1.95;;;11.30;99.90;;;;;;4966703;28;20100;-50
2022/05/13 04:56:14;;;;;;;8.57;2.30;;;11.40;99.90;;;;;;4985763;28;20039;-56
2022/05/13 04:58:41;;;;;;;6.85;2.47;;;11.40;99.90;;;;;;4966602;28;20038;-56
2022/05/13 05:01:09;;;;;;;6.05;2.20;;;11.40;99.90;;;;;;4984917;28;20061;-52
2022/05/13 05:03:35;;;;;;;8.30;2.22;;;11.50;99.90;;;;;;4966462;28;20043;-54
2022/05/13 05:06:02;;;;;;;10.38;1.92;;;11.50;99.90;;;;;;4984697;28;20522;-53
2022/05/13 05:08:29;;;;;;;9.23;2.65;;;11.50;99.90;;;;;;4984963;28;20055;-55
2022/05/13 05:10:55;;;;;;;11.27;2.40;;;11.60;99.90;;;;;;4985003;28;20043;-49
2022/05/13 05:13:27;;;;;;;7.55;2.80;;;11.60;99.90;;;;;;4983519;28;20538;-58
2022/05/13 05:15:54;;;;;;;8.15;2.65;;;11.70;99.90;;;;;;4984914;28;20038;-55
2022/05/13 05:18:20;;;;;;;12.00;2.90;;;11.70;99.90;;;;;;4980750;28;20042;-55
2022/05/13 05:20:46;;;;;;;9.18;3.03;;;11.70;99.90;;;;;;4969067;28;20101;-51
2022/05/13 05:23:22;;;;;;;8.38;2.78;;;11.80;99.90;;;;;;4984279;28;20030;-57
2022/05/13 05:25:48;;;;;;;16.27;2.67;;;11.90;99.90;;;;;;4982008;28;20045;-56
2022/05/13 05:28:14;;;;;;;12.05;2.50;;;11.90;99.90;;;;;;4984744;28;20050;-57
2022/05/13 05:30:41;;;;;;;10.57;2.42;;;12.00;99.90;;;;;;4982363;28;20044;-56
2022/05/13 05:33:08;;;;;;;10.25;2.72;;;12.10;99.90;;;;;;4981138;28;20112;-56
2022/05/13 05:35:34;;;;;;;8.48;2.40;;;12.20;99.90;;;;;;4984721;28;20567;-56
2022/05/13 05:38:00;;;;;;;7.28;1.90;;;12.40;99.90;;;;;;4986350;28;20049;-54
2022/05/13 05:40:26;;;;;;;11.77;2.30;;;12.50;99.90;;;;;;4984801;28;20038;-53
2022/05/13 05:42:52;;;;;;;11.68;2.30;;;12.50;99.90;;;;;;4980340;28;20034;-56
2022/05/13 05:45:20;;;;;;;9.85;2.55;;;12.60;99.90;;;;;;4984276;28;20057;-56
2022/05/13 05:47:46;;;;;;;8.63;2.38;;;12.70;99.90;;;;;;4980158;28;20042;-56
2022/05/13 05:50:15;;;;;;;9.23;2.50;;;12.80;99.90;;;;;;4984473;28;20403;-55
2022/05/13 05:52:41;;;;;;;9.85;2.50;;;12.80;99.90;;;;;;4986622;28;20035;-56
2022/05/13 05:58:13;;;;;;;9.30;1.80;;;12.90;99.90;;;;;;4964464;28;20054;-55
2022/05/13 06:00:46;;;;;;;8.60;2.50;;;12.90;99.90;;;;;;4980514;28;20125;-52
2022/05/13 06:03:12;;;;;;;11.10;2.20;;;13.00;99.90;;;;;;4983187;28;20034;-55
2022/05/13 06:05:38;;;;;;;8.07;1.95;;;13.00;99.90;;;;;;4989240;28;20411;-51
2022/05/13 06:08:05;;;;;;;6.38;1.80;;;13.20;99.90;;;;;;4969282;28;20050;-54
2022/05/13 06:10:33;;;;;;;7.95;1.45;;;13.40;99.90;;;;;;4990368;28;20042;-56
2022/05/13 06:12:58;;;;;;;4.60;1.30;;;13.50;99.90;;;;;;4984651;28;20452;-55
2022/05/13 06:15:25;;;;;;;6.35;1.27;;;13.70;99.90;;;;;;4987350;28;20053;-56
2022/05/13 06:17:55;;;;;;;6.13;1.08;;;13.70;99.90;;;;;;4970002;28;20053;-56
2022/05/13 06:20:25;;;;;;;8.43;1.20;;;13.70;99.90;;;;;;4986107;28;20940;-52
2022/05/13 06:22:51;;;;;;;8.65;1.17;;;13.70;99.90;;;;;;4986958;28;20042;-55
2022/05/13 06:25:19;;;;;;;10.35;1.60;;;13.80;99.90;;;;;;4987621;28;20478;-51
2022/05/13 06:27:46;;;;;;;8.80;1.23;;;13.80;99.90;;;;;;4985478;28;20046;-56
2022/05/13 06:30:15;;;;;;;5.68;1.52;;;13.70;99.90;;;;;;4967070;28;20578;-54
2022/05/13 06:32:41;;;;;;;5.35;1.00;;;13.70;99.90;;;;;;4985850;28;20069;-55
2022/05/13 06:35:08;;;;;;;7.75;1.20;;;13.70;99.90;;;;;;4989396;28;20807;-53
2022/05/13 06:37:34;;;;;;;8.80;1.60;;;13.80;99.90;;;;;;4985937;28;20062;-56
2022/05/13 06:40:00;;;;;;;6.50;0.88;;;13.80;99.90;;;;;;4968930;28;20038;-55
2022/05/13 06:42:27;;;;;;;9.02;1.00;;;13.80;99.90;;;;;;4985047;28;20474;-54
2022/05/13 06:44:52;;;;;;;6.50;0.90;;;13.80;99.90;;;;;;4984018;28;20038;-56
2022/05/13 06:47:18;;;;;;;6.90;1.15;;;13.80;99.30;;;;;;4985714;28;20050;-56
2022/05/13 06:49:44;;;;;;;5.97;0.90;;;13.80;99.10;;;;;;4989429;28;20054;-55
2022/05/13 06:52:13;;;;;;;8.60;0.90;;;13.80;98.50;;;;;;4971606;28;20525;-57
2022/05/13 06:54:40;;;;;;;7.80;1.50;;;13.80;97.70;;;;;;4988179;28;20518;-52
2022/05/13 06:57:07;;;;;;;11.02;0.80;;;13.80;97.00;;;;;;4989286;28;20054;-54
2022/05/13 06:59:32;;;;;;;8.30;0.80;;;13.80;96.50;;;;;;4992154;28;20146;-56
2022/05/13 07:01:58;;;;;;;7.10;0.82;;;13.80;95.80;;;;;;4991756;28;20460;-53
2022/05/13 07:04:24;;;;;;;7.53;1.33;;;13.70;95.50;;;;;;4985736;28;20411;-56
2022/05/13 07:06:50;;;;;;;6.07;0.80;;;13.70;95.40;;;;;;4947185;28;20128;-56
2022/05/13 07:09:16;;;;;;;4.32;0.98;;;13.70;95.80;;;;;;4972259;28;20121;-55
2022/05/13 07:11:42;;;;;;;6.35;0.95;;;13.70;95.40;;;;;;4981134;28;20050;-56
2022/05/13 07:14:07;;;;;;;6.25;0.70;;;13.90;95.60;;;;;;4980771;28;20067;-52
2022/05/13 07:16:33;;;;;;;6.15;0.50;;;14.00;95.30;;;;;;4984911;28;20530;-55
2022/05/13 07:19:00;;;;;;;7.50;0.77;;;14.00;95.20;;;;;;4989025;28;20034;-51
2022/05/13 07:21:25;;;;;;;5.85;0.88;;;14.20;94.00;;;;;;4989619;28;20097;-54
2022/05/13 07:23:51;;;;;;;8.75;0.98;;;14.20;94.70;;;;;;4970270;28;20039;-57
2022/05/13 07:26:17;;;;;;;4.43;0.85;;;14.30;93.60;;;;;;4981728;28;20042;-52
2022/05/13 07:28:42;;;;;;;4.97;0.77;;;14.40;93.20;;;;;;4985591;28;20046;-56
2022/05/13 07:31:08;;;;;;;5.13;1.00;;;14.50;93.60;;;;;;4986946;28;20145;-55
2022/05/13 07:33:34;;;;;;;2.85;0.80;;;14.50;93.20;;;;;;4989347;28;20061;-55
2022/05/13 07:36:00;;;;;;;5.15;0.70;;;14.60;93.30;;;;;;4968365;28;20059;-52
2022/05/13 07:38:27;;;;;;;4.15;0.73;;;14.70;93.70;;;;;;4973432;28;20065;-56
2022/05/13 07:43:37;;;;;;;6.22;1.08;;;14.70;91.70;;;;;;4987389;28;20054;-49
2022/05/13 07:46:03;;;;;;;7.95;1.00;;;14.70;91.70;;;;;;4987771;28;20038;-53
2022/05/13 07:48:29;;;;;;;6.70;0.88;;;14.60;91.80;;;;;;4986457;28;20407;-55
2022/05/13 07:50:55;;;;;;;6.65;1.20;;;14.60;91.90;;;;;;4989992;28;20046;-56
2022/05/13 07:53:21;;;;;;;5.45;0.60;;;14.60;92.20;;;;;;4986240;28;20078;-54
2022/05/13 07:55:46;;;;;;;6.07;1.00;;;14.70;91.60;;;;;;4988175;28;20555;-56
2022/05/13 07:58:12;;;;;;;3.72;0.75;;;14.70;91.30;;;;;;4969213;28;20088;-51
2022/05/13 08:00:38;;;;;;;4.40;0.75;;;14.70;90.90;;;;;;4982174;28;20545;-53
2022/05/13 08:03:09;;;;;;;3.38;0.77;;;14.80;90.40;;;;;;4983857;28;20066;-54
2022/05/13 08:05:42;;;;;;;5.03;0.73;;;14.70;89.60;;;;;;4983591;28;20058;-55
2022/05/13 08:08:22;;;;;;;3.45;0.70;;;14.70;89.70;;;;;;4971668;28;20046;-54
2022/05/13 08:10:55;;;;;;;3.53;0.80;;;14.80;90.90;;;;;;4980876;28;20128;-56
2022/05/13 08:13:21;;;;;;;;;;;14.80;90.50;;;;;;4953074;28;20050;-56
2022/05/13 08:15:48;;;;;;;5.43;0.80;;;14.90;90.70;;;;;;4985757;28;19921;-51
2022/05/13 08:18:15;;;;;;;4.55;0.80;;;15.10;90.50;;;;;;4981017;28;20049;-52
2022/05/13 08:20:43;;;;;;;6.13;0.90;;;15.20;90.20;;;;;;4979528;28;20125;-55
2022/05/13 08:23:09;;;;;;;4.32;1.13;;;15.40;90.70;;;;;;4987979;28;20104;-56
2022/05/13 08:25:34;;;;;;;4.93;0.82;;;15.30;90.40;;;;;;4989953;28;20050;-56
2022/05/13 08:28:00;;;;;;;7.22;0.80;;;15.20;90.50;;;;;;4983446;28;20443;-52
2022/05/13 08:30:26;;;;;;;7.03;0.80;;;15.20;91.00;;;;;;4963703;28;20057;-55
2022/05/13 08:32:52;;;;;;;4.15;0.85;;;15.20;90.90;;;;;;4983462;28;20046;-54
2022/05/13 08:35:20;;;;;;;3.88;0.80;;;15.30;91.00;;;;;;4985552;28;20506;-53
2022/05/13 08:37:52;;;;;;;4.07;0.60;;;15.40;89.20;;;;;;4985303;28;20035;-55
2022/05/13 08:40:36;;;;;;;2.95;0.70;;;15.30;87.20;;;;;;4980341;28;20089;-53
2022/05/13 08:43:09;;;;;;;6.47;0.85;;;15.30;88.30;;;;;;4980970;28;20440;-50
2022/05/13 08:45:35;;;;;;;;;;;15.20;89.90;;;;;;4987757;28;20070;-55
2022/05/13 08:48:01;;;;;;;5.28;0.60;;;15.30;90.20;;;;;;4986770;28;19918;-53
2022/05/13 08:50:42;;;;;;;4.90;0.80;;;15.30;90.20;;;;;;4984972;28;20038;-56
2022/05/13 08:53:24;;;;;;;6.00;1.02;;;15.40;89.00;;;;;;4987790;28;20053;-53
2022/05/13 08:55:57;;;;;;;4.82;0.70;;;15.60;88.70;;;;;;4981821;28;20042;-56
2022/05/13 08:58:31;;;;;;;3.08;0.60;;;15.90;86.60;;;;;;4985302;28;20128;-55
2022/05/13 09:00:59;;;;;;;4.22;0.70;;;16.20;86.20;;;;;;4980994;28;20403;-52
2022/05/13 09:03:34;;;;;;;5.28;0.98;;;16.20;83.40;;;;;;4977729;28;20501;-56
2022/05/13 09:06:05;;;;;;;7.35;1.02;;;16.00;82.70;;;;;;4980875;28;20101;-53
2022/05/13 09:08:33;;;;;;;4.95;0.90;;;15.80;84.90;;;;;;4986544;28;20057;-56
2022/05/13 09:11:28;;;;;;;2.65;0.68;;;15.90;87.00;;;;;;4987037;28;20143;-56
2022/05/13 09:14:24;;;;;;;5.03;0.95;;;16.00;87.20;;;;;;4981883;28;20519;-54
2022/05/13 09:17:11;;;;;;;5.43;0.95;;;15.90;85.40;;;;;;4950420;28;20095;-55
2022/05/13 09:19:47;;;;;;;5.45;0.82;;;15.80;85.90;;;;;;4983861;28;20038;-56
2022/05/13 09:22:12;;;;;;;6.43;1.20;;;15.70;86.10;;;;;;4980496;28;20046;-52
2022/05/13 09:24:39;;;;;;;3.72;0.70;;;15.70;83.40;;;;;;4982898;28;20046;-55
2022/05/13 09:27:05;;;;;;;3.88;0.82;;;15.60;84.50;;;;;;4984571;28;20185;-56
2022/05/13 09:29:43;;;;;;;10.75;1.00;;;15.70;86.10;;;;;;4981661;28;20538;-53
2022/05/13 09:32:27;;;;;;;5.43;1.02;;;15.80;82.70;;;;;;4985528;28;20490;-55
2022/05/13 09:35:01;;;;;;;5.10;0.85;;;15.90;84.00;;;;;;4981955;28;20094;-53
2022/05/13 09:37:39;;;;;;;8.00;1.00;;;16.10;85.90;;;;;;4980617;28;20039;-55
2022/05/13 09:40:16;;;;;;;14.68;1.17;;;16.40;83.70;;;;;;4969990;28;20039;-54
2022/05/13 09:42:45;;;;;;;11.30;1.38;;;16.60;81.80;;;;;;4987159;28;20491;-56
2022/05/13 09:45:17;;;;;;;6.60;0.85;;;16.50;78.50;;;;;;4982155;28;20050;-54
2022/05/13 09:48:04;;;;;;;3.47;0.60;;;16.50;80.90;;;;;;4989371;28;20034;-55
2022/05/13 09:50:34;;;;;;;3.03;0.70;;;16.40;82.30;;;;;;4979459;28;20098;-55
2022/05/13 09:53:14;;;;;;;5.18;0.90;;;16.40;82.10;;;;;;4983157;28;20216;-54
2022/05/13 09:55:41;;;;;;;4.95;0.80;;;16.40;83.00;;;;;;4984364;28;20043;-54
2022/05/13 09:58:49;;;;;;;2.50;0.70;;;16.50;81.60;;;;;;4983982;28;20042;-54
2022/05/13 10:01:22;;;;;;;8.20;1.27;;;16.60;79.60;;;;;;4977550;28;20134;-52
2022/05/13 10:04:11;;;;;;;6.63;0.88;;;16.50;79.50;;;;;;4956249;28;20066;-49
2022/05/13 10:06:38;;;;;;;5.72;0.75;;;16.60;79.70;;;;;;4982986;28;20057;-54
2022/05/13 10:14:45;;;;;;;7.38;1.15;;;16.90;80.80;;;;;;4986475;28;20043;-52
2022/05/13 10:17:27;;;;;;;3.35;0.90;;;17.00;78.10;;;;;;4991087;28;20097;-54
2022/05/13 10:20:07;;;;;;;5.07;1.17;;;17.00;79.20;;;;;;4986995;28;20030;-53
2022/05/13 10:23:00;;;;;;;3.72;1.27;;;17.00;74.80;;;;;;4986178;28;20347;-54
2022/05/13 10:25:31;;;;;;;5.15;1.42;;;17.00;78.10;;;;;;4975858;28;20058;-53
2022/05/13 10:28:03;;;;;;;11.50;1.43;;;16.80;78.40;;;;;;4990357;28;20492;-55
2022/05/13 10:30:45;;;;;;;5.45;1.27;;;16.70;76.70;;;;;;4987562;28;20856;-52
2022/05/13 10:33:32;;;;;;;5.75;1.35;;;16.70;77.60;;;;;;4988458;28;20121;-54
2022/05/13 10:36:29;;;;;;;4.55;1.20;;;16.80;78.30;;;;;;4971935;28;20404;-54
2022/05/13 10:39:06;;;;;;;6.38;1.30;;;17.00;79.00;;;;;;4984230;28;20050;-53
2022/05/13 10:42:17;;;;;;;3.80;0.90;;;17.00;76.00;;;;;;4985495;28;20491;-54
2022/05/13 10:45:00;;;;;;;13.23;1.35;;;16.90;75.00;;;;;;4922115;29;20071;-54
2022/05/13 10:47:37;;;;;;;5.15;1.20;;;16.80;74.80;;;;;;4925471;29;20066;-52
2022/05/13 10:50:09;;;;;;;3.17;0.82;;;16.70;76.00;;;;;;4951456;28;20545;-53
2022/05/13 10:52:44;;;;;;;5.80;0.90;;;16.90;75.10;;;;;;4988618;28;20052;-49
2022/05/13 10:55:18;;;;;;;7.22;1.48;;;17.20;75.40;;;;;;4982750;28;20042;-52
2022/05/13 10:58:20;;;;;;;11.80;1.50;;;17.50;74.30;;;;;;4987444;28;20054;-51
2022/05/13 11:01:08;;;;;;;10.48;1.75;;;17.20;69.90;;;;;;4984873;28;20456;-49
2022/05/13 11:03:54;;;;;;;8.48;1.30;;;16.80;72.40;;;;;;4985327;28;20043;-53
2022/05/13 11:06:29;;;;;;;6.28;1.13;;;17.00;75.20;;;;;;4983215;28;20070;-50
2022/05/13 11:09:13;;;;;;;4.68;1.50;;;17.30;75.00;;;;;;4983169;28;20126;-47
2022/05/13 11:11:43;;;;;;;5.35;1.20;;;17.30;72.30;;;;;;4987157;28;20132;-52
2022/05/13 11:14:32;;;;;;;5.25;1.13;;;17.20;72.50;;;;;;4971530;28;20085;-54
2022/05/13 11:17:24;;;;;;;3.38;1.20;;;17.10;73.80;;;;;;4966692;28;20057;-54
2022/05/13 11:20:04;;;;;;;7.45;1.40;;;17.00;74.90;;;;;;4983804;28;20491;-49
2022/05/13 11:22:44;;;;;;;6.47;1.20;;;17.00;76.20;;;;;;4988844;28;20042;-54
2022/05/13 11:25:57;;;;;;;6.32;1.15;;;17.20;75.70;;;;;;4979586;28;20353;-51
2022/05/13 11:28:56;;;;;;;5.05;1.08;;;17.50;73.40;;;;;;4982026;28;20536;-54
2022/05/13 11:31:28;;;;;;;7.35;1.67;;;17.50;71.80;;;;;;4982915;28;20058;-55
2022/05/13 11:33:59;;;;;;;9.93;1.38;;;17.60;72.00;;;;;;4984727;28;20038;-55
2022/05/13 11:36:56;;;;;;;8.02;1.33;;;17.70;72.50;;;;;;4985763;28;20114;-53
2022/05/13 11:39:49;;;;;;;5.72;1.40;;;18.00;69.10;;;;;;4985576;28;20077;-54
2022/05/13 11:42:29;;;;;;;4.38;1.00;;;17.90;69.30;;;;;;4986662;28;20153;-47
2022/05/13 11:45:25;;;;;;;4.63;1.10;;;17.50;68.10;;;;;;4984284;28;20558;-55
2022/05/13 11:48:19;;;;;;;8.15;1.13;;;17.40;71.00;;;;;;4980834;28;20042;-54
2022/05/13 11:50:44;;;;;;;5.82;1.33;;;17.30;70.40;;;;;;4967027;28;20531;-47
2022/05/13 11:53:10;;;;;;;9.27;1.83;;;17.50;70.20;;;;;;4985046;28;20031;-54
2022/05/13 11:55:36;;;;;;;11.38;1.45;;;17.50;68.30;;;;;;4984285;28;20042;-55
2022/05/13 11:58:02;;;;;;;7.40;0.88;;;17.60;67.70;;;;;;4966777;28;20051;-55
2022/05/13 12:00:31;;;;;;;7.20;0.80;;;17.60;65.30;;;;;;4984652;28;20549;-55
2022/05/13 12:03:09;;;;;;;3.20;0.88;;;17.50;64.50;;;;;;4983419;28;20123;-52
2022/05/13 12:05:46;;;;;;;14.40;1.30;;;17.80;66.50;;;;;;4953929;28;20078;-50
2022/05/13 12:08:38;;;;;;;8.35;1.00;;;18.00;63.70;;;;;;4982841;28;20046;-55
2022/05/13 12:11:11;;;;;;;5.60;0.73;;;17.90;62.00;;;;;;4952689;28;20058;-48
2022/05/13 12:14:04;;;;;;;7.78;1.35;;;17.80;61.50;;;;;;4987666;28;20475;-55
2022/05/13 12:17:02;;;;;;;7.10;1.10;;;18.00;63.50;;;;;;4984502;28;20042;-52
2022/05/13 12:19:35;;;;;;;6.53;1.10;;;17.90;63.00;;;;;;4983451;28;20229;-55
2022/05/13 12:22:20;;;;;;;5.47;0.90;;;18.20;64.30;;;;;;4984219;28;20117;-53
2022/05/13 12:24:59;;;;;;;5.22;1.20;;;18.40;62.00;;;;;;4984418;28;20514;-55
2022/05/13 12:27:43;;;;;;;5.07;0.65;;;18.30;61.30;;;;;;4981784;28;20056;-53
2022/05/13 12:30:30;;;;;;;4.60;0.98;;;18.40;62.50;;;;;;4980204;28;20114;-55
2022/05/13 12:33:16;;;;;;;2.72;0.50;;;18.50;60.70;;;;;;4983308;28;20038;-52
2022/05/13 12:38:27;;;;;;;5.45;0.95;;;18.50;57.60;;;;;;4983098;28;20129;-54
2022/05/13 12:41:14;;;;;;;4.90;0.80;;;18.50;58.00;;;;;;4967411;28;20042;-55
2022/05/13 12:43:51;;;;;;;9.93;1.02;;;18.80;59.70;;;;;;4981638;28;20049;-52
2022/05/13 12:46:39;;;;;;;6.07;0.63;;;18.70;57.00;;;;;;4981972;28;20069;-54
2022/05/13 12:49:25;;;;;;;5.85;0.75;;;18.50;57.30;;;;;;4966756;28;20399;-54
2022/05/13 12:52:09;;;;;;;8.48;1.30;;;18.50;57.40;;;;;;4984966;28;20120;-55
2022/05/13 12:55:04;;;;;;;3.33;0.50;;;18.50;57.10;;;;;;4985337;28;20124;-51
2022/05/13 12:57:41;;;;;;;14.68;1.88;;;18.70;56.00;;;;;;4956039;28;21089;-55
2022/05/13 13:00:36;;;;;;;7.47;1.00;;;18.50;54.80;;;;;;4981102;28;20085;-50
2022/05/13 13:03:07;;;;;;;17.70;1.33;;;18.40;56.80;;;;;;4981563;28;20045;-55
2022/05/13 13:05:35;;;;;;;8.73;1.08;;;18.40;55.70;;;;;;4979207;28;20046;-55
2022/05/13 13:08:12;;;;;;;7.20;1.25;;;18.40;56.30;;;;;;4983320;28;20038;-55
2022/05/13 13:10:51;;;;;;;4.78;0.60;;;18.40;55.50;;;;;;4984868;28;20031;-54
2022/05/13 13:13:47;;;;;;;7.80;0.80;;;18.50;55.90;;;;;;4976222;28;20035;-55
2022/05/13 13:16:41;;;;;;;5.22;0.90;;;18.40;54.50;;;;;;4979791;28;20030;-48
2022/05/13 13:19:14;;;;;;;4.20;0.70;;;18.40;55.10;;;;;;4965067;28;20050;-55
2022/05/13 13:21:41;;;;;;;6.43;1.10;;;18.50;56.90;;;;;;4982085;28;20038;-56
2022/05/13 13:24:17;;;;;;;13.60;1.65;;;18.60;55.40;;;;;;4982415;28;20039;-51
2022/05/13 13:26:48;;;;;;;13.52;1.60;;;18.80;55.60;;;;;;4987953;28;20039;-56
2022/05/13 13:29:20;;;;;;;5.20;1.10;;;18.80;54.10;;;;;;4979265;28;20384;-54
2022/05/13 13:31:48;;;;;;;7.75;1.25;;;18.70;55.00;;;;;;4979843;28;20046;-54